sensor_id;sensor_type;location;lat;lon;timestamp;noise_LAeq;noise_LA_min;noise_LA_max;noise_LA01;noise_LA95
43512;Laerm;34054;52.100;5.116;2022-07-19T00:00:19;47.84;35.00;52.63;;
43512;Laerm;34054;52.100;5.116;2022-07-19T00:00:54;47.33;35.91;53.76;;
43512;Laerm;34054;52.100;5.116;2022-07-19T00:01:26;48.08;35.88;55.85;;
43512;Laerm;34054;52.100;5.116;2022-07-19T00:01:58;48.02;34.24;56.68;;
43512;Laerm;34054;52.100;5.116;2022-07-19T00:02:31;47.58;34.38;55.17;;
43512;Laerm;34054;52.100;5.116;2022-07-19T00:03:03;47.62;34.64;54.01;;
43512;Laerm;34054;52.100;5.116;2022-07-19T00:03:35;47.10;34.77;50.64;;
43512;Laerm;34054;52.100;5.116;2022-07-19T00:04:07;47.26;34.63;50.85;;
43512;Laerm;34054;52.100;5.116;2022-07-19T00:04:38;47.22;33.90;50.59;;
43512;Laerm;34054;52.100;5.116;2022-07-19T00:05:11;47.25;34.58;50.95;;
43512;Laerm;34054;52.100;5.116;2022-07-19T00:05:44;47.18;34.35;50.75;;
43512;Laerm;34054;52.100;5.116;2022-07-19T00:06:16;47.50;35.25;51.21;;
43512;Laerm;34054;52.100;5.116;2022-07-19T00:06:47;47.27;34.77;50.64;;
43512;Laerm;34054;52.100;5.116;2022-07-19T00:07:20;47.11;34.06;50.47;;
43512;Laerm;34054;52.100;5.116;2022-07-19T00:07:52;47.29;34.60;51.39;;
43512;Laerm;34054;52.100;5.116;2022-07-19T00:08:24;47.14;34.20;50.81;;
43512;Laerm;34054;52.100;5.116;2022-07-19T00:08:58;47.03;34.44;51.00;;
43512;Laerm;34054;52.100;5.116;2022-07-19T00:09:30;47.17;34.59;50.76;;
43512;Laerm;34054;52.100;5.116;2022-07-19T00:10:06;46.88;34.55;51.24;;
43512;Laerm;34054;52.100;5.116;2022-07-19T00:10:38;47.25;36.82;50.56;;
43512;Laerm;34054;52.100;5.116;2022-07-19T00:11:10;47.72;37.29;52.03;;
43512;Laerm;34054;52.100;5.116;2022-07-19T00:11:42;47.31;36.36;50.80;;
43512;Laerm;34054;52.100;5.116;2022-07-19T00:12:14;48.10;37.08;51.46;;
43512;Laerm;34054;52.100;5.116;2022-07-19T00:12:47;48.49;33.70;54.94;;
43512;Laerm;34054;52.100;5.116;2022-07-19T00:13:20;49.78;38.04;56.02;;
43512;Laerm;34054;52.100;5.116;2022-07-19T00:13:53;47.21;33.67;51.21;;
43512;Laerm;34054;52.100;5.116;2022-07-19T00:14:24;47.29;33.93;52.30;;
43512;Laerm;34054;52.100;5.116;2022-07-19T00:14:57;47.14;34.04;50.93;;
43512;Laerm;34054;52.100;5.116;2022-07-19T00:15:29;47.18;33.80;50.92;;
43512;Laerm;34054;52.100;5.116;2022-07-19T00:16:01;47.08;34.23;50.51;;
43512;Laerm;34054;52.100;5.116;2022-07-19T00:16:33;47.24;33.46;50.93;;
43512;Laerm;34054;52.100;5.116;2022-07-19T00:17:04;47.23;33.71;50.92;;
43512;Laerm;34054;52.100;5.116;2022-07-19T00:17:40;46.82;34.03;51.03;;
43512;Laerm;34054;52.100;5.116;2022-07-19T00:18:14;46.85;33.45;50.86;;
43512;Laerm;34054;52.100;5.116;2022-07-19T00:18:46;47.36;34.18;50.84;;
43512;Laerm;34054;52.100;5.116;2022-07-19T00:19:18;47.31;34.33;50.92;;
43512;Laerm;34054;52.100;5.116;2022-07-19T00:19:50;47.12;34.09;50.87;;
43512;Laerm;34054;52.100;5.116;2022-07-19T00:20:22;47.28;35.04;50.70;;
43512;Laerm;34054;52.100;5.116;2022-07-19T00:20:53;47.23;33.71;50.62;;
43512;Laerm;34054;52.100;5.116;2022-07-19T00:21:26;47.22;34.93;51.00;;
43512;Laerm;34054;52.100;5.116;2022-07-19T00:21:58;47.47;35.76;50.71;;
43512;Laerm;34054;52.100;5.116;2022-07-19T00:22:30;47.33;34.65;51.11;;
43512;Laerm;34054;52.100;5.116;2022-07-19T00:23:02;47.21;34.90;50.61;;
43512;Laerm;34054;52.100;5.116;2022-07-19T00:23:34;47.22;33.57;52.03;;
43512;Laerm;34054;52.100;5.116;2022-07-19T00:24:08;46.90;33.10;50.77;;
43512;Laerm;34054;52.100;5.116;2022-07-19T00:24:39;47.28;33.89;51.12;;
43512;Laerm;34054;52.100;5.116;2022-07-19T00:25:12;47.31;34.66;52.13;;
43512;Laerm;34054;52.100;5.116;2022-07-19T00:25:44;47.02;33.73;50.77;;
43512;Laerm;34054;52.100;5.116;2022-07-19T00:26:16;47.27;34.07;51.02;;
43512;Laerm;34054;52.100;5.116;2022-07-19T00:26:47;47.26;34.34;51.45;;
43512;Laerm;34054;52.100;5.116;2022-07-19T00:27:20;47.15;34.01;50.67;;
43512;Laerm;34054;52.100;5.116;2022-07-19T00:27:51;47.35;33.27;50.89;;
43512;Laerm;34054;52.100;5.116;2022-07-19T00:28:23;47.57;35.11;51.13;;
43512;Laerm;34054;52.100;5.116;2022-07-19T00:28:55;47.23;35.75;50.94;;
43512;Laerm;34054;52.100;5.116;2022-07-19T00:29:27;47.31;34.44;51.01;;
43512;Laerm;34054;52.100;5.116;2022-07-19T00:29:59;47.29;34.54;50.80;;
43512;Laerm;34054;52.100;5.116;2022-07-19T00:30:31;47.25;34.31;50.68;;
43512;Laerm;34054;52.100;5.116;2022-07-19T00:31:03;47.27;33.19;50.97;;
43512;Laerm;34054;52.100;5.116;2022-07-19T00:31:35;47.92;34.85;53.19;;
43512;Laerm;34054;52.100;5.116;2022-07-19T00:32:08;47.14;34.73;51.27;;
43512;Laerm;34054;52.100;5.116;2022-07-19T00:32:40;47.25;35.04;50.65;;
43512;Laerm;34054;52.100;5.116;2022-07-19T00:33:11;47.22;34.04;50.91;;
43512;Laerm;34054;52.100;5.116;2022-07-19T00:33:44;47.13;33.39;50.64;;
43512;Laerm;34054;52.100;5.116;2022-07-19T00:34:15;47.35;34.00;51.17;;
43512;Laerm;34054;52.100;5.116;2022-07-19T00:34:47;47.31;34.31;50.81;;
43512;Laerm;34054;52.100;5.116;2022-07-19T00:35:19;47.08;33.65;50.69;;
43512;Laerm;34054;52.100;5.116;2022-07-19T00:35:51;47.22;33.64;50.75;;
43512;Laerm;34054;52.100;5.116;2022-07-19T00:36:23;47.27;34.43;50.81;;
43512;Laerm;34054;52.100;5.116;2022-07-19T00:36:55;47.16;33.85;50.79;;
43512;Laerm;34054;52.100;5.116;2022-07-19T00:37:27;47.32;34.54;50.66;;
43512;Laerm;34054;52.100;5.116;2022-07-19T00:38:04;46.82;35.32;50.72;;
43512;Laerm;34054;52.100;5.116;2022-07-19T00:38:36;47.29;34.51;50.78;;
43512;Laerm;34054;52.100;5.116;2022-07-19T00:39:09;47.20;35.02;51.02;;
43512;Laerm;34054;52.100;5.116;2022-07-19T00:39:41;47.18;34.65;50.66;;
43512;Laerm;34054;52.100;5.116;2022-07-19T00:40:13;47.30;34.53;50.86;;
43512;Laerm;34054;52.100;5.116;2022-07-19T00:40:45;47.28;34.41;50.66;;
43512;Laerm;34054;52.100;5.116;2022-07-19T00:41:17;47.20;34.13;50.72;;
43512;Laerm;34054;52.100;5.116;2022-07-19T00:41:49;47.26;34.50;51.09;;
43512;Laerm;34054;52.100;5.116;2022-07-19T00:42:21;47.26;34.33;50.97;;
43512;Laerm;34054;52.100;5.116;2022-07-19T00:42:53;47.14;33.82;50.70;;
43512;Laerm;34054;52.100;5.116;2022-07-19T00:43:26;47.36;34.39;52.34;;
43512;Laerm;34054;52.100;5.116;2022-07-19T00:43:57;47.46;33.64;51.81;;
43512;Laerm;34054;52.100;5.116;2022-07-19T00:44:30;47.32;34.51;51.01;;
43512;Laerm;34054;52.100;5.116;2022-07-19T00:45:02;47.28;35.38;51.26;;
43512;Laerm;34054;52.100;5.116;2022-07-19T00:45:34;47.20;34.01;51.04;;
43512;Laerm;34054;52.100;5.116;2022-07-19T00:46:12;46.56;33.45;50.93;;
43512;Laerm;34054;52.100;5.116;2022-07-19T00:46:44;47.14;33.88;50.87;;
43512;Laerm;34054;52.100;5.116;2022-07-19T00:47:17;47.13;33.70;50.91;;
43512;Laerm;34054;52.100;5.116;2022-07-19T00:47:49;49.63;33.85;64.43;;
43512;Laerm;34054;52.100;5.116;2022-07-19T00:48:21;47.24;34.31;51.01;;
43512;Laerm;34054;52.100;5.116;2022-07-19T00:48:54;47.30;34.38;54.13;;
43512;Laerm;34054;52.100;5.116;2022-07-19T00:49:26;47.29;34.18;50.91;;
43512;Laerm;34054;52.100;5.116;2022-07-19T00:49:59;47.34;36.12;50.79;;
43512;Laerm;34054;52.100;5.116;2022-07-19T00:50:32;47.31;34.11;50.91;;
43512;Laerm;34054;52.100;5.116;2022-07-19T00:51:07;46.97;34.40;50.89;;
43512;Laerm;34054;52.100;5.116;2022-07-19T00:51:39;49.07;34.58;60.70;;
43512;Laerm;34054;52.100;5.116;2022-07-19T00:52:14;46.92;34.14;51.02;;
43512;Laerm;34054;52.100;5.116;2022-07-19T00:52:50;47.27;34.91;51.32;;
43512;Laerm;34054;52.100;5.116;2022-07-19T00:53:24;46.94;33.52;50.95;;
43512;Laerm;34054;52.100;5.116;2022-07-19T00:53:57;47.14;34.57;50.85;;
43512;Laerm;34054;52.100;5.116;2022-07-19T00:54:34;46.69;33.80;50.81;;
43512;Laerm;34054;52.100;5.116;2022-07-19T00:55:08;47.06;34.16;50.80;;
43512;Laerm;34054;52.100;5.116;2022-07-19T00:55:41;47.09;33.72;50.73;;
43512;Laerm;34054;52.100;5.116;2022-07-19T00:56:16;46.91;33.95;52.85;;
43512;Laerm;34054;52.100;5.116;2022-07-19T00:56:50;47.05;33.73;50.87;;
43512;Laerm;34054;52.100;5.116;2022-07-19T00:57:23;47.17;35.22;50.99;;
43512;Laerm;34054;52.100;5.116;2022-07-19T00:57:57;47.26;35.26;51.12;;
43512;Laerm;34054;52.100;5.116;2022-07-19T00:58:31;47.25;36.48;51.25;;
43512;Laerm;34054;52.100;5.116;2022-07-19T00:59:04;47.28;34.59;50.89;;
43512;Laerm;34054;52.100;5.116;2022-07-19T00:59:36;47.27;34.02;50.74;;
43512;Laerm;34054;52.100;5.116;2022-07-19T01:00:11;47.34;34.46;53.73;;
43512;Laerm;34054;52.100;5.116;2022-07-19T01:00:46;46.82;33.65;51.01;;
43512;Laerm;34054;52.100;5.116;2022-07-19T01:01:18;47.28;33.47;51.24;;
43512;Laerm;34054;52.100;5.116;2022-07-19T01:01:51;47.33;34.21;51.52;;
43512;Laerm;34054;52.100;5.116;2022-07-19T01:02:25;47.36;34.33;54.49;;
43512;Laerm;34054;52.100;5.116;2022-07-19T01:02:57;47.22;33.82;50.79;;
43512;Laerm;34054;52.100;5.116;2022-07-19T01:03:31;47.20;34.51;50.97;;
43512;Laerm;34054;52.100;5.116;2022-07-19T01:04:02;47.33;34.68;50.94;;
43512;Laerm;34054;52.100;5.116;2022-07-19T01:04:35;47.27;34.30;51.11;;
43512;Laerm;34054;52.100;5.116;2022-07-19T01:05:10;46.99;33.90;51.21;;
43512;Laerm;34054;52.100;5.116;2022-07-19T01:05:42;47.17;34.12;53.37;;
43512;Laerm;34054;52.100;5.116;2022-07-19T01:06:16;47.01;34.03;50.80;;
43512;Laerm;34054;52.100;5.116;2022-07-19T01:06:48;47.24;34.04;51.18;;
43512;Laerm;34054;52.100;5.116;2022-07-19T01:07:20;47.28;34.00;50.79;;
43512;Laerm;34054;52.100;5.116;2022-07-19T01:07:52;47.28;33.92;51.20;;
43512;Laerm;34054;52.100;5.116;2022-07-19T01:08:24;47.18;34.62;50.61;;
43512;Laerm;34054;52.100;5.116;2022-07-19T01:08:56;47.33;34.30;50.98;;
43512;Laerm;34054;52.100;5.116;2022-07-19T01:09:27;47.31;33.60;50.87;;
43512;Laerm;34054;52.100;5.116;2022-07-19T01:10:02;46.94;34.33;50.93;;
43512;Laerm;34054;52.100;5.116;2022-07-19T01:10:34;47.24;34.47;50.86;;
43512;Laerm;34054;52.100;5.116;2022-07-19T01:11:06;47.25;34.34;50.93;;
43512;Laerm;34054;52.100;5.116;2022-07-19T01:11:39;47.19;34.37;51.07;;
43512;Laerm;34054;52.100;5.116;2022-07-19T01:12:11;47.33;34.25;53.89;;
43512;Laerm;34054;52.100;5.116;2022-07-19T01:12:44;47.38;34.25;51.06;;
43512;Laerm;34054;52.100;5.116;2022-07-19T01:13:16;47.18;34.55;51.23;;
43512;Laerm;34054;52.100;5.116;2022-07-19T01:13:48;47.41;35.01;51.06;;
43512;Laerm;34054;52.100;5.116;2022-07-19T01:14:20;47.48;35.05;51.82;;
43512;Laerm;34054;52.100;5.116;2022-07-19T01:14:55;47.30;35.91;51.12;;
43512;Laerm;34054;52.100;5.116;2022-07-19T01:15:27;48.77;37.61;58.49;;
43512;Laerm;34054;52.100;5.116;2022-07-19T01:16:00;47.62;36.31;50.98;;
43512;Laerm;34054;52.100;5.116;2022-07-19T01:16:32;47.22;34.36;50.75;;
43512;Laerm;34054;52.100;5.116;2022-07-19T01:17:05;47.29;34.48;50.80;;
43512;Laerm;34054;52.100;5.116;2022-07-19T01:17:36;47.37;35.13;50.77;;
43512;Laerm;34054;52.100;5.116;2022-07-19T01:18:10;47.12;34.94;51.08;;
43512;Laerm;34054;52.100;5.116;2022-07-19T01:18:41;47.50;34.64;60.14;;
43512;Laerm;34054;52.100;5.116;2022-07-19T01:19:14;47.35;34.26;51.44;;
43512;Laerm;34054;52.100;5.116;2022-07-19T01:19:46;47.34;35.74;51.10;;
43512;Laerm;34054;52.100;5.116;2022-07-19T01:20:20;47.21;34.52;50.88;;
43512;Laerm;34054;52.100;5.116;2022-07-19T01:20:52;47.21;34.19;50.75;;
43512;Laerm;34054;52.100;5.116;2022-07-19T01:21:26;47.07;34.13;50.80;;
43512;Laerm;34054;52.100;5.116;2022-07-19T01:21:59;47.24;34.95;50.92;;
43512;Laerm;34054;52.100;5.116;2022-07-19T01:22:31;47.35;34.25;50.84;;
43512;Laerm;34054;52.100;5.116;2022-07-19T01:23:03;48.31;36.34;54.50;;
43512;Laerm;34054;52.100;5.116;2022-07-19T01:23:35;47.37;35.19;51.09;;
43512;Laerm;34054;52.100;5.116;2022-07-19T01:24:06;48.55;33.93;58.89;;
43512;Laerm;34054;52.100;5.116;2022-07-19T01:24:39;47.23;33.89;50.75;;
43512;Laerm;34054;52.100;5.116;2022-07-19T01:25:11;47.22;33.68;51.05;;
43512;Laerm;34054;52.100;5.116;2022-07-19T01:25:43;47.30;34.22;50.91;;
43512;Laerm;34054;52.100;5.116;2022-07-19T01:26:16;47.15;33.45;51.74;;
43512;Laerm;34054;52.100;5.116;2022-07-19T01:26:48;47.34;34.19;51.01;;
43512;Laerm;34054;52.100;5.116;2022-07-19T01:27:19;47.37;34.20;51.20;;
43512;Laerm;34054;52.100;5.116;2022-07-19T01:27:52;47.27;34.34;50.66;;
43512;Laerm;34054;52.100;5.116;2022-07-19T01:28:23;47.56;35.14;51.30;;
43512;Laerm;34054;52.100;5.116;2022-07-19T01:28:55;47.37;35.54;50.91;;
43512;Laerm;34054;52.100;5.116;2022-07-19T01:29:28;47.37;34.71;51.00;;
43512;Laerm;34054;52.100;5.116;2022-07-19T01:29:59;47.40;34.13;52.40;;
43512;Laerm;34054;52.100;5.116;2022-07-19T01:30:31;47.59;34.81;52.30;;
43512;Laerm;34054;52.100;5.116;2022-07-19T01:31:03;47.33;34.21;50.78;;
43512;Laerm;34054;52.100;5.116;2022-07-19T01:31:38;46.94;35.21;50.79;;
43512;Laerm;34054;52.100;5.116;2022-07-19T01:32:10;47.42;36.44;50.88;;
43512;Laerm;34054;52.100;5.116;2022-07-19T01:32:41;47.26;34.13;50.88;;
43512;Laerm;34054;52.100;5.116;2022-07-19T01:33:13;47.26;33.92;50.86;;
43512;Laerm;34054;52.100;5.116;2022-07-19T01:33:46;47.16;33.83;51.42;;
43512;Laerm;34054;52.100;5.116;2022-07-19T01:34:18;47.29;34.27;50.97;;
43512;Laerm;34054;52.100;5.116;2022-07-19T01:34:49;47.37;34.07;51.24;;
43512;Laerm;34054;52.100;5.116;2022-07-19T01:35:22;47.17;34.72;51.04;;
43512;Laerm;34054;52.100;5.116;2022-07-19T01:35:54;47.30;34.40;50.84;;
43512;Laerm;34054;52.100;5.116;2022-07-19T01:36:26;47.20;34.31;51.25;;
43512;Laerm;34054;52.100;5.116;2022-07-19T01:36:59;47.27;34.72;51.16;;
43512;Laerm;34054;52.100;5.116;2022-07-19T01:37:30;47.40;35.22;50.91;;
43512;Laerm;34054;52.100;5.116;2022-07-19T01:38:02;47.33;33.99;50.71;;
43512;Laerm;34054;52.100;5.116;2022-07-19T01:38:35;47.11;34.25;50.87;;
43512;Laerm;34054;52.100;5.116;2022-07-19T01:39:07;47.27;34.44;50.89;;
43512;Laerm;34054;52.100;5.116;2022-07-19T01:39:39;47.37;34.17;50.93;;
43512;Laerm;34054;52.100;5.116;2022-07-19T01:40:15;46.99;34.13;51.23;;
43512;Laerm;34054;52.100;5.116;2022-07-19T01:40:47;47.21;34.01;50.74;;
43512;Laerm;34054;52.100;5.116;2022-07-19T01:41:18;47.39;34.95;50.69;;
43512;Laerm;34054;52.100;5.116;2022-07-19T01:41:51;47.18;34.32;50.83;;
43512;Laerm;34054;52.100;5.116;2022-07-19T01:42:22;47.39;34.12;50.99;;
43512;Laerm;34054;52.100;5.116;2022-07-19T01:42:55;47.30;33.92;50.99;;
43512;Laerm;34054;52.100;5.116;2022-07-19T01:43:27;47.27;34.60;50.83;;
43512;Laerm;34054;52.100;5.116;2022-07-19T01:43:59;47.31;34.18;50.82;;
43512;Laerm;34054;52.100;5.116;2022-07-19T01:44:30;47.37;34.38;50.81;;
43512;Laerm;34054;52.100;5.116;2022-07-19T01:45:06;47.47;35.62;51.32;;
43512;Laerm;34054;52.100;5.116;2022-07-19T01:45:38;47.50;35.50;50.88;;
43512;Laerm;34054;52.100;5.116;2022-07-19T01:46:10;47.33;34.24;50.98;;
43512;Laerm;34054;52.100;5.116;2022-07-19T01:46:42;47.22;34.13;50.83;;
43512;Laerm;34054;52.100;5.116;2022-07-19T01:47:14;47.33;34.57;51.17;;
43512;Laerm;34054;52.100;5.116;2022-07-19T01:47:46;47.32;34.92;50.95;;
43512;Laerm;34054;52.100;5.116;2022-07-19T01:48:19;47.12;34.12;50.90;;
43512;Laerm;34054;52.100;5.116;2022-07-19T01:48:51;47.50;35.36;51.06;;
43512;Laerm;34054;52.100;5.116;2022-07-19T01:49:23;47.41;35.37;50.93;;
43512;Laerm;34054;52.100;5.116;2022-07-19T01:49:55;47.31;35.41;51.27;;
43512;Laerm;34054;52.100;5.116;2022-07-19T01:50:27;47.60;35.87;50.84;;
43512;Laerm;34054;52.100;5.116;2022-07-19T01:50:58;47.41;35.31;50.84;;
43512;Laerm;34054;52.100;5.116;2022-07-19T01:51:32;47.12;34.90;51.00;;
43512;Laerm;34054;52.100;5.116;2022-07-19T01:52:04;47.35;35.42;51.25;;
43512;Laerm;34054;52.100;5.116;2022-07-19T01:52:36;47.31;34.56;51.02;;
43512;Laerm;34054;52.100;5.116;2022-07-19T01:53:08;47.36;34.14;51.06;;
43512;Laerm;34054;52.100;5.116;2022-07-19T01:53:40;47.17;33.84;50.96;;
43512;Laerm;34054;52.100;5.116;2022-07-19T01:54:12;47.36;34.21;50.83;;
43512;Laerm;34054;52.100;5.116;2022-07-19T01:54:44;47.19;34.26;51.09;;
43512;Laerm;34054;52.100;5.116;2022-07-19T01:55:17;47.27;34.73;50.73;;
43512;Laerm;34054;52.100;5.116;2022-07-19T01:55:49;47.29;34.17;50.85;;
43512;Laerm;34054;52.100;5.116;2022-07-19T01:56:22;47.26;34.22;51.09;;
43512;Laerm;34054;52.100;5.116;2022-07-19T01:56:53;47.33;34.17;51.08;;
43512;Laerm;34054;52.100;5.116;2022-07-19T01:57:25;47.37;34.39;52.55;;
43512;Laerm;34054;52.100;5.116;2022-07-19T01:57:58;47.20;34.55;51.02;;
43512;Laerm;34054;52.100;5.116;2022-07-19T01:58:29;47.42;34.34;51.26;;
43512;Laerm;34054;52.100;5.116;2022-07-19T01:59:01;47.52;35.67;51.29;;
43512;Laerm;34054;52.100;5.116;2022-07-19T01:59:36;46.96;34.30;50.81;;
43512;Laerm;34054;52.100;5.116;2022-07-19T02:00:09;47.67;34.31;59.81;;
43512;Laerm;34054;52.100;5.116;2022-07-19T02:00:41;47.61;35.20;50.70;;
43512;Laerm;34054;52.100;5.116;2022-07-19T02:01:13;47.26;33.94;52.39;;
43512;Laerm;34054;52.100;5.116;2022-07-19T02:01:45;47.38;34.82;51.22;;
43512;Laerm;34054;52.100;5.116;2022-07-19T02:02:16;47.40;34.54;51.06;;
43512;Laerm;34054;52.100;5.116;2022-07-19T02:02:48;47.47;35.09;51.05;;
43512;Laerm;34054;52.100;5.116;2022-07-19T02:03:20;47.63;33.88;52.17;;
43512;Laerm;34054;52.100;5.116;2022-07-19T02:03:52;47.72;36.49;51.12;;
43512;Laerm;34054;52.100;5.116;2022-07-19T02:04:23;47.30;34.16;50.65;;
43512;Laerm;34054;52.100;5.116;2022-07-19T02:04:55;47.50;34.26;56.28;;
43512;Laerm;34054;52.100;5.116;2022-07-19T02:05:28;47.20;34.29;50.80;;
43512;Laerm;34054;52.100;5.116;2022-07-19T02:05:59;47.34;34.05;50.83;;
43512;Laerm;34054;52.100;5.116;2022-07-19T02:06:32;47.15;33.84;51.18;;
43512;Laerm;34054;52.100;5.116;2022-07-19T02:07:05;48.52;34.84;57.59;;
43512;Laerm;34054;52.100;5.116;2022-07-19T02:07:36;47.30;33.87;50.90;;
43512;Laerm;34054;52.100;5.116;2022-07-19T02:08:08;47.33;34.12;50.86;;
43512;Laerm;34054;52.100;5.116;2022-07-19T02:08:41;47.18;34.26;50.66;;
43512;Laerm;34054;52.100;5.116;2022-07-19T02:09:13;47.28;33.44;50.86;;
43512;Laerm;34054;52.100;5.116;2022-07-19T02:09:44;47.30;33.35;50.75;;
43512;Laerm;34054;52.100;5.116;2022-07-19T02:10:18;47.11;33.62;50.82;;
43512;Laerm;34054;52.100;5.116;2022-07-19T02:10:51;47.02;33.53;50.89;;
43512;Laerm;34054;52.100;5.116;2022-07-19T02:11:22;47.24;33.91;50.80;;
43512;Laerm;34054;52.100;5.116;2022-07-19T02:12:09;45.67;33.44;51.19;;
43512;Laerm;34054;52.100;5.116;2022-07-19T02:12:41;47.13;32.77;50.77;;
43512;Laerm;34054;52.100;5.116;2022-07-19T02:13:13;47.32;33.61;51.07;;
43512;Laerm;34054;52.100;5.116;2022-07-19T02:13:44;47.34;34.25;50.82;;
43512;Laerm;34054;52.100;5.116;2022-07-19T02:14:17;47.12;33.66;50.57;;
43512;Laerm;34054;52.100;5.116;2022-07-19T02:14:49;47.34;33.82;50.96;;
43512;Laerm;34054;52.100;5.116;2022-07-19T02:15:21;47.41;34.18;50.87;;
43512;Laerm;34054;52.100;5.116;2022-07-19T02:15:53;47.18;33.55;50.84;;
43512;Laerm;34054;52.100;5.116;2022-07-19T02:16:25;54.68;33.91;69.95;;
43512;Laerm;34054;52.100;5.116;2022-07-19T02:16:57;50.35;34.05;67.20;;
43512;Laerm;34054;52.100;5.116;2022-07-19T02:17:28;47.30;33.73;51.08;;
43512;Laerm;34054;52.100;5.116;2022-07-19T02:18:01;47.16;34.08;50.91;;
43512;Laerm;34054;52.100;5.116;2022-07-19T02:18:33;47.34;34.67;50.98;;
43512;Laerm;34054;52.100;5.116;2022-07-19T02:19:06;47.16;33.93;50.96;;
43512;Laerm;34054;52.100;5.116;2022-07-19T02:19:38;47.39;34.36;50.77;;
43512;Laerm;34054;52.100;5.116;2022-07-19T02:20:10;47.22;33.79;50.89;;
43512;Laerm;34054;52.100;5.116;2022-07-19T02:20:43;47.21;34.85;51.32;;
43512;Laerm;34054;52.100;5.116;2022-07-19T02:21:15;47.53;34.41;51.55;;
43512;Laerm;34054;52.100;5.116;2022-07-19T02:21:48;47.49;35.49;51.24;;
43512;Laerm;34054;52.100;5.116;2022-07-19T02:22:21;47.19;34.69;51.28;;
43512;Laerm;34054;52.100;5.116;2022-07-19T02:22:53;47.34;34.32;50.71;;
43512;Laerm;34054;52.100;5.116;2022-07-19T02:23:24;47.36;33.90;50.85;;
43512;Laerm;34054;52.100;5.116;2022-07-19T02:23:57;47.16;33.33;51.10;;
43512;Laerm;34054;52.100;5.116;2022-07-19T02:24:28;47.36;33.99;50.72;;
43512;Laerm;34054;52.100;5.116;2022-07-19T02:25:00;47.41;34.84;51.38;;
43512;Laerm;34054;52.100;5.116;2022-07-19T02:25:31;47.37;34.44;50.89;;
43512;Laerm;34054;52.100;5.116;2022-07-19T02:26:04;47.19;34.35;50.66;;
43512;Laerm;34054;52.100;5.116;2022-07-19T02:26:35;47.26;33.73;51.02;;
43512;Laerm;34054;52.100;5.116;2022-07-19T02:27:07;47.34;34.21;51.80;;
43512;Laerm;34054;52.100;5.116;2022-07-19T02:27:39;47.35;33.58;50.92;;
43512;Laerm;34054;52.100;5.116;2022-07-19T02:28:11;47.17;34.62;50.98;;
43512;Laerm;34054;52.100;5.116;2022-07-19T02:28:43;47.41;34.95;50.86;;
43512;Laerm;34054;52.100;5.116;2022-07-19T02:29:15;47.34;34.59;50.92;;
43512;Laerm;34054;52.100;5.116;2022-07-19T02:29:47;47.24;33.85;50.75;;
43512;Laerm;34054;52.100;5.116;2022-07-19T02:30:20;47.46;34.05;51.64;;
43512;Laerm;34054;52.100;5.116;2022-07-19T02:30:52;47.30;33.60;51.12;;
43512;Laerm;34054;52.100;5.116;2022-07-19T02:31:24;47.24;34.41;50.90;;
43512;Laerm;34054;52.100;5.116;2022-07-19T02:31:56;47.34;34.40;50.81;;
43512;Laerm;34054;52.100;5.116;2022-07-19T02:32:27;47.40;34.90;50.85;;
43512;Laerm;34054;52.100;5.116;2022-07-19T02:33:00;47.20;33.72;50.64;;
43512;Laerm;34054;52.100;5.116;2022-07-19T02:33:32;47.30;34.05;51.12;;
43512;Laerm;34054;52.100;5.116;2022-07-19T02:34:03;47.98;34.26;51.80;;
43512;Laerm;34054;52.100;5.116;2022-07-19T02:34:36;48.64;36.91;58.95;;
43512;Laerm;34054;52.100;5.116;2022-07-19T02:35:09;51.00;35.87;64.01;;
43512;Laerm;34054;52.100;5.116;2022-07-19T02:35:42;52.15;34.83;64.34;;
43512;Laerm;34054;52.100;5.116;2022-07-19T02:36:14;52.62;33.87;65.50;;
43512;Laerm;34054;52.100;5.116;2022-07-19T02:36:47;54.00;34.13;67.50;;
43512;Laerm;34054;52.100;5.116;2022-07-19T02:37:19;54.87;34.52;66.89;;
43512;Laerm;34054;52.100;5.116;2022-07-19T02:37:51;53.91;36.70;66.93;;
43512;Laerm;34054;52.100;5.116;2022-07-19T02:38:23;55.31;34.70;69.79;;
43512;Laerm;34054;52.100;5.116;2022-07-19T02:38:55;56.52;35.14;71.08;;
43512;Laerm;34054;52.100;5.116;2022-07-19T02:39:29;54.18;35.20;66.35;;
43512;Laerm;34054;52.100;5.116;2022-07-19T02:40:01;54.62;34.31;70.74;;
43512;Laerm;34054;52.100;5.116;2022-07-19T02:40:32;55.48;35.11;67.14;;
43512;Laerm;34054;52.100;5.116;2022-07-19T02:41:05;55.11;34.99;67.73;;
43512;Laerm;34054;52.100;5.116;2022-07-19T02:41:36;54.67;34.47;68.16;;
43512;Laerm;34054;52.100;5.116;2022-07-19T02:42:08;54.43;34.23;66.81;;
43512;Laerm;34054;52.100;5.116;2022-07-19T02:42:40;56.20;35.17;70.14;;
43512;Laerm;34054;52.100;5.116;2022-07-19T02:43:12;55.59;34.59;68.08;;
43512;Laerm;34054;52.100;5.116;2022-07-19T02:43:44;55.63;34.57;70.06;;
43512;Laerm;34054;52.100;5.116;2022-07-19T02:44:17;56.39;34.81;71.85;;
43512;Laerm;34054;52.100;5.116;2022-07-19T02:44:48;55.67;35.48;68.51;;
43512;Laerm;34054;52.100;5.116;2022-07-19T02:45:20;55.13;36.18;68.64;;
43512;Laerm;34054;52.100;5.116;2022-07-19T02:45:52;56.22;35.00;67.09;;
43512;Laerm;34054;52.100;5.116;2022-07-19T02:46:24;53.36;35.22;72.37;;
43512;Laerm;34054;52.100;5.116;2022-07-19T02:46:55;51.15;35.29;64.24;;
43512;Laerm;34054;52.100;5.116;2022-07-19T02:47:27;50.58;35.30;63.13;;
43512;Laerm;34054;52.100;5.116;2022-07-19T02:48:00;50.93;35.96;63.67;;
43512;Laerm;34054;52.100;5.116;2022-07-19T02:48:32;51.09;34.83;66.32;;
43512;Laerm;34054;52.100;5.116;2022-07-19T02:49:04;50.47;35.76;64.62;;
43512;Laerm;34054;52.100;5.116;2022-07-19T02:49:36;50.69;35.70;63.74;;
43512;Laerm;34054;52.100;5.116;2022-07-19T02:50:08;51.27;35.20;63.58;;
43512;Laerm;34054;52.100;5.116;2022-07-19T02:50:41;51.40;38.60;62.98;;
43512;Laerm;34054;52.100;5.116;2022-07-19T02:51:14;50.91;35.24;64.14;;
43512;Laerm;34054;52.100;5.116;2022-07-19T02:51:47;50.48;35.74;61.24;;
43512;Laerm;34054;52.100;5.116;2022-07-19T02:52:19;51.17;36.86;63.18;;
43512;Laerm;34054;52.100;5.116;2022-07-19T02:52:51;51.16;35.93;64.37;;
43512;Laerm;34054;52.100;5.116;2022-07-19T02:53:23;49.05;35.23;63.60;;
43512;Laerm;34054;52.100;5.116;2022-07-19T02:53:54;47.84;35.32;53.95;;
43512;Laerm;34054;52.100;5.116;2022-07-19T02:54:27;47.60;35.46;52.51;;
43512;Laerm;34054;52.100;5.116;2022-07-19T02:54:58;47.86;35.23;54.19;;
43512;Laerm;34054;52.100;5.116;2022-07-19T02:55:30;47.67;35.38;53.63;;
43512;Laerm;34054;52.100;5.116;2022-07-19T02:56:03;48.58;36.72;57.44;;
43512;Laerm;34054;52.100;5.116;2022-07-19T02:56:35;47.47;35.12;50.98;;
43512;Laerm;34054;52.100;5.116;2022-07-19T02:57:07;47.56;35.72;51.85;;
43512;Laerm;34054;52.100;5.116;2022-07-19T02:57:40;47.59;35.64;52.38;;
43512;Laerm;34054;52.100;5.116;2022-07-19T02:58:11;48.54;37.85;53.47;;
43512;Laerm;34054;52.100;5.116;2022-07-19T02:58:43;48.00;36.01;51.95;;
43512;Laerm;34054;52.100;5.116;2022-07-19T02:59:15;47.70;37.40;51.86;;
43512;Laerm;34054;52.100;5.116;2022-07-19T02:59:47;47.75;36.01;51.40;;
43512;Laerm;34054;52.100;5.116;2022-07-19T03:00:18;47.90;35.89;52.87;;
43512;Laerm;34054;52.100;5.116;2022-07-19T03:00:51;48.53;35.45;57.89;;
43512;Laerm;34054;52.100;5.116;2022-07-19T03:01:23;48.04;37.48;52.79;;